TAF KWRL
KWRL 280527Z 2806/2906 VRB05KT P6SM SCT120 BKN200 FM282300 VRB05KT P6SM SCT200=
METAR KWRL
WC KWRL
WS KWRL
WV KWRL